Time;durP1;ratioP1;P1;durP2;ratioP2;P2;SDS_P1;SDS_P2;PMS_P1;PMS_P2;Temp;Humidity;BMP_temperature;BMP_pressure;BME280_temperature;BME280_humidity;BME280_pressure;Samples;Min_cycle;Max_cycle;Signal;HPM_P1;HPM_P2
2022/05/14 00:00:39;;;;;;;5.72;5.03;;;15.10;99.90;;;;;;5031107;28;20099;-80
2022/05/14 00:03:05;;;;;;;6.57;5.97;;;15.10;99.90;;;;;;5031280;28;20018;-80
2022/05/14 00:05:31;;;;;;;6.00;5.43;;;15.20;99.90;;;;;;5030562;28;20034;-79
2022/05/14 00:07:57;;;;;;;8.35;6.20;;;15.20;99.90;;;;;;5024149;28;20378;-80
2022/05/14 00:10:25;;;;;;;6.82;5.63;;;15.20;99.90;;;;;;5025824;28;20033;-79
2022/05/14 00:13:06;;;;;;;7.13;6.22;;;15.30;99.90;;;;;;5028328;28;20022;-79
2022/05/14 00:15:39;;;;;;;6.68;5.97;;;15.30;99.90;;;;;;5043973;28;20401;-79
2022/05/14 00:18:07;;;;;;;6.22;5.63;;;15.30;99.90;;;;;;5048253;28;20033;-79
2022/05/14 00:20:36;;;;;;;6.07;5.47;;;15.30;99.90;;;;;;5031525;28;20032;-80
2022/05/14 00:23:03;;;;;;;5.28;4.78;;;15.20;99.90;;;;;;5051184;28;20021;-80
2022/05/14 00:25:30;;;;;;;6.13;5.53;;;15.30;99.90;;;;;;5050366;28;20060;-79
2022/05/14 00:27:56;;;;;;;7.82;6.10;;;15.30;99.90;;;;;;5044352;28;20021;-78
2022/05/14 00:30:24;;;;;;;6.32;5.63;;;15.40;99.90;;;;;;5044614;28;20017;-79
2022/05/14 00:32:51;;;;;;;8.23;5.53;;;15.40;99.90;;;;;;5043553;28;20025;-79
2022/05/14 00:35:17;;;;;;;5.85;5.25;;;15.40;99.90;;;;;;5047536;28;20033;-80
2022/05/14 00:37:44;;;;;;;5.75;4.72;;;15.30;99.90;;;;;;5044490;28;20033;-80
2022/05/14 00:40:33;;;;;;;6.07;4.75;;;15.30;99.90;;;;;;5046804;28;20120;-79
2022/05/14 00:42:59;;;;;;;5.50;4.40;;;15.30;99.90;;;;;;5045717;28;20095;-80
2022/05/14 00:45:26;;;;;;;4.63;3.78;;;15.30;99.90;;;;;;5045306;28;20025;-80
2022/05/14 00:47:56;;;;;;;4.25;3.85;;;15.30;99.90;;;;;;5045606;28;20021;-79
2022/05/14 00:50:49;;;;;;;4.38;3.97;;;15.30;99.90;;;;;;5040636;28;20075;-79
2022/05/14 00:53:31;;;;;;;4.05;3.72;;;15.30;99.90;;;;;;5041579;28;20039;-79
2022/05/14 00:55:59;;;;;;;5.25;3.72;;;15.30;99.90;;;;;;5042259;28;20041;-79
2022/05/14 00:58:37;;;;;;;4.82;4.00;;;15.20;99.90;;;;;;5038547;28;20037;-79
2022/05/14 01:01:03;;;;;;;3.85;3.53;;;15.10;99.90;;;;;;5041294;28;20033;-80
2022/05/14 01:03:29;;;;;;;3.78;3.47;;;15.10;99.90;;;;;;5038085;28;20059;-79
2022/05/14 01:05:56;;;;;;;5.38;4.28;;;15.00;99.90;;;;;;5039168;28;20104;-79
2022/05/14 01:08:23;;;;;;;5.30;4.55;;;15.00;99.90;;;;;;5037723;28;20022;-79
2022/05/14 01:10:50;;;;;;;6.25;4.63;;;14.90;99.90;;;;;;5038378;28;20009;-79
2022/05/14 01:13:16;;;;;;;6.93;4.45;;;14.80;99.90;;;;;;5041978;28;20037;-79
2022/05/14 01:15:46;;;;;;;7.75;4.60;;;14.70;99.90;;;;;;5044407;28;20048;-79
2022/05/14 01:18:11;;;;;;;5.30;4.80;;;14.70;99.90;;;;;;5043731;28;20026;-79
2022/05/14 01:20:38;;;;;;;4.35;3.90;;;14.60;99.90;;;;;;5044321;28;20036;-79
2022/05/14 01:26:27;;;;;;;5.03;4.20;;;14.60;99.90;;;;;;5024748;28;20029;-79
2022/05/14 01:26:28;;;;;;;4.90;4.40;;;14.50;99.90;;;;;;5039930;28;20037;-79
2022/05/14 01:29:11;;;;;;;6.03;5.07;;;14.50;99.90;;;;;;5047578;28;20024;-79
2022/05/14 01:31:37;;;;;;;;;;;14.50;99.90;;;;;;5051829;28;20018;-80
2022/05/14 01:34:06;;;;;;;3.97;3.58;;;14.40;99.90;;;;;;5043216;28;19921;-79
2022/05/14 01:36:37;;;;;;;4.32;3.95;;;14.40;99.90;;;;;;5030466;28;20030;-78
2022/05/14 01:39:04;;;;;;;5.03;4.15;;;14.40;99.90;;;;;;5024265;28;20044;-79
2022/05/14 01:41:29;;;;;;;4.20;3.80;;;14.40;99.90;;;;;;5022530;28;20045;-79
2022/05/14 01:43:55;;;;;;;3.63;3.33;;;14.40;99.90;;;;;;5024460;28;20387;-79
2022/05/14 01:46:21;;;;;;;3.92;3.60;;;14.40;99.90;;;;;;5037415;28;20041;-79
2022/05/14 01:48:48;;;;;;;5.07;4.25;;;14.30;99.90;;;;;;5044294;28;20045;-79
2022/05/14 01:51:14;;;;;;;5.28;3.92;;;14.30;99.90;;;;;;5040716;28;20041;-79
2022/05/14 01:53:40;;;;;;;4.03;3.72;;;14.30;99.90;;;;;;5036143;28;20026;-78
2022/05/14 01:56:06;;;;;;;4.72;3.58;;;14.20;99.90;;;;;;5022255;28;20033;-79
2022/05/14 01:58:37;;;;;;;3.97;3.63;;;14.20;99.90;;;;;;5021847;28;20502;-79
2022/05/14 02:01:09;;;;;;;4.07;3.67;;;14.10;99.90;;;;;;5021763;28;20080;-79
2022/05/14 02:03:36;;;;;;;4.10;3.80;;;14.10;99.90;;;;;;5021850;28;20022;-79
2022/05/14 02:06:03;;;;;;;3.72;3.33;;;14.20;99.90;;;;;;5021405;28;20088;-79
2022/05/14 02:08:29;;;;;;;4.15;3.75;;;14.20;99.90;;;;;;5020354;28;20014;-79
2022/05/14 02:10:55;;;;;;;4.95;4.40;;;14.30;99.90;;;;;;5024570;28;20382;-79
2022/05/14 02:13:21;;;;;;;4.13;3.70;;;14.30;99.90;;;;;;5021747;28;20061;-79
2022/05/14 02:15:46;;;;;;;3.90;3.60;;;14.30;99.90;;;;;;5010987;28;20033;-80
2022/05/14 02:18:12;;;;;;;4.22;3.83;;;14.40;99.90;;;;;;5025189;28;20025;-80
2022/05/14 02:20:38;;;;;;;4.05;3.65;;;14.40;99.90;;;;;;5047144;28;20022;-79
2022/05/14 02:23:03;;;;;;;4.60;3.90;;;14.50;99.90;;;;;;5046981;28;20014;-79
2022/05/14 02:25:29;;;;;;;3.30;3.00;;;14.50;99.90;;;;;;5046837;28;20036;-79
2022/05/14 02:27:55;;;;;;;4.28;3.88;;;14.50;99.90;;;;;;5048307;28;20033;-79
2022/05/14 02:30:21;;;;;;;4.78;4.00;;;14.40;99.90;;;;;;5046462;28;20056;-79
2022/05/14 02:32:47;;;;;;;4.22;3.83;;;14.40;99.90;;;;;;5043938;28;20026;-79
2022/05/14 02:35:12;;;;;;;4.65;4.25;;;14.30;99.90;;;;;;5017238;28;20044;-79
2022/05/14 02:37:38;;;;;;;4.63;4.20;;;14.30;99.90;;;;;;5021077;28;20118;-79
2022/05/14 02:40:05;;;;;;;5.07;4.15;;;14.20;99.90;;;;;;5021037;28;20030;-79
2022/05/14 02:42:30;;;;;;;3.75;3.45;;;14.20;99.90;;;;;;5034095;28;20025;-80
2022/05/14 02:44:56;;;;;;;4.75;4.28;;;14.10;99.90;;;;;;5030215;28;20034;-78
2022/05/14 02:47:23;;;;;;;7.20;4.10;;;14.10;99.90;;;;;;5038657;28;20034;-79
2022/05/14 02:49:49;;;;;;;4.00;3.60;;;14.10;99.90;;;;;;5039242;28;20386;-80
2022/05/14 02:52:15;;;;;;;4.20;3.80;;;14.00;99.90;;;;;;5042244;28;20083;-79
2022/05/14 02:54:41;;;;;;;4.60;3.88;;;14.00;99.90;;;;;;5039384;28;20030;-79
2022/05/14 02:57:07;;;;;;;3.92;3.63;;;13.90;99.90;;;;;;5025814;28;20109;-79
2022/05/14 02:59:33;;;;;;;5.13;4.63;;;13.80;99.90;;;;;;5022221;28;20498;-80
2022/05/14 03:01:59;;;;;;;4.75;4.25;;;13.80;99.90;;;;;;5004069;28;20026;-79
2022/05/14 03:04:30;;;;;;;4.82;4.38;;;13.70;99.90;;;;;;5020601;28;20130;-79
2022/05/14 03:06:57;;;;;;;4.57;3.90;;;13.70;99.90;;;;;;5021234;28;20073;-79
2022/05/14 03:09:23;;;;;;;4.55;4.00;;;13.60;99.90;;;;;;5020004;28;20034;-79
2022/05/14 03:11:49;;;;;;;5.05;4.38;;;13.60;99.90;;;;;;5022133;28;20022;-80
2022/05/14 03:14:16;;;;;;;4.50;4.10;;;13.60;99.90;;;;;;5020125;28;20026;-79
2022/05/14 03:16:43;;;;;;;4.38;4.03;;;13.60;99.90;;;;;;5036247;28;20124;-80
2022/05/14 03:19:09;;;;;;;4.80;4.35;;;13.60;99.90;;;;;;5043583;28;20112;-80
2022/05/14 03:21:36;;;;;;;5.28;4.38;;;13.70;99.90;;;;;;5045462;28;20057;-79
2022/05/14 03:24:02;;;;;;;4.82;4.35;;;13.70;99.90;;;;;;5044894;28;20029;-79
2022/05/14 03:26:27;;;;;;;5.07;4.57;;;13.80;99.90;;;;;;5037337;28;20037;-79
2022/05/14 03:28:53;;;;;;;4.72;4.22;;;13.80;99.90;;;;;;5036918;28;20021;-78
2022/05/14 03:31:19;;;;;;;4.82;4.30;;;13.70;99.90;;;;;;5018038;28;20022;-79
2022/05/14 03:33:45;;;;;;;5.78;4.15;;;13.70;99.90;;;;;;5036517;28;20021;-79
2022/05/14 03:36:11;;;;;;;5.38;4.57;;;13.70;99.90;;;;;;5035484;28;20056;-79
2022/05/14 03:38:38;;;;;;;5.53;4.97;;;13.80;99.90;;;;;;5036884;28;20029;-79
2022/05/14 03:41:04;;;;;;;6.10;5.50;;;13.80;99.90;;;;;;5039071;28;20060;-79
2022/05/14 03:43:31;;;;;;;6.50;5.03;;;13.80;99.90;;;;;;5021843;28;20021;-79
2022/05/14 03:45:58;;;;;;;5.95;5.32;;;13.80;99.90;;;;;;5039513;28;20458;-79
2022/05/14 03:48:24;;;;;;;6.47;5.18;;;13.80;99.90;;;;;;5040517;28;20037;-80
2022/05/14 03:50:50;;;;;;;5.50;5.00;;;13.80;99.90;;;;;;5041255;28;20025;-81
2022/05/14 03:53:17;;;;;;;5.28;4.78;;;13.80;99.90;;;;;;5041697;28;20032;-80
2022/05/14 03:55:42;;;;;;;4.93;4.47;;;13.80;99.90;;;;;;5040860;28;20029;-80
2022/05/14 03:58:08;;;;;;;5.53;4.65;;;13.80;99.90;;;;;;5039250;28;20155;-80
2022/05/14 04:00:34;;;;;;;5.97;5.45;;;13.80;99.90;;;;;;5042536;28;20113;-80
2022/05/14 04:03:00;;;;;;;5.80;5.10;;;13.80;99.90;;;;;;5038831;28;20069;-81
2022/05/14 04:05:26;;;;;;;5.35;4.78;;;13.80;99.90;;;;;;5041054;28;20145;-81
2022/05/14 04:07:51;;;;;;;5.30;4.80;;;13.80;99.90;;;;;;5039637;28;20026;-79
2022/05/14 04:10:17;;;;;;;5.00;4.13;;;13.80;99.90;;;;;;5038975;28;20076;-81
2022/05/14 04:12:43;;;;;;;5.18;4.40;;;13.90;99.90;;;;;;5040700;28;20023;-82
2022/05/14 04:15:10;;;;;;;5.00;4.60;;;14.00;99.90;;;;;;5037957;28;20026;-80
2022/05/14 04:17:36;;;;;;;4.45;4.05;;;14.20;99.90;;;;;;5054851;28;20105;-78
2022/05/14 04:20:03;;;;;;;4.05;3.75;;;14.30;99.90;;;;;;5049147;28;20033;-80
2022/05/14 04:22:29;;;;;;;4.10;3.75;;;14.40;99.90;;;;;;5030349;28;20093;-81
2022/05/14 04:24:55;;;;;;;4.32;3.92;;;14.40;99.90;;;;;;5022610;28;20060;-81
2022/05/14 04:27:21;;;;;;;5.95;4.47;;;14.40;99.90;;;;;;5022050;28;20041;-81
2022/05/14 04:29:47;;;;;;;4.68;4.28;;;14.30;99.90;;;;;;5040088;28;20021;-78
2022/05/14 04:32:12;;;;;;;4.75;4.35;;;14.40;99.90;;;;;;5055093;28;20049;-79
2022/05/14 04:34:38;;;;;;;4.68;4.28;;;14.60;99.90;;;;;;5047904;28;20040;-80
2022/05/14 04:37:04;;;;;;;4.28;3.88;;;14.80;99.90;;;;;;5041321;28;20009;-81
2022/05/14 04:39:32;;;;;;;4.32;3.92;;;14.90;99.90;;;;;;5040554;28;20386;-81
2022/05/14 04:42:04;;;;;;;4.10;3.70;;;15.10;99.90;;;;;;5038301;28;20022;-79
2022/05/14 04:44:32;;;;;;;3.50;3.20;;;15.20;99.90;;;;;;5066088;22;20053;-81
2022/05/14 04:47:00;;;;;;;3.67;3.38;;;15.20;99.90;;;;;;5048695;28;20056;-83
2022/05/14 04:49:26;;;;;;;4.18;3.75;;;15.30;99.90;;;;;;5040404;28;20021;-83
2022/05/14 04:51:52;;;;;;;5.28;4.72;;;15.40;99.90;;;;;;5040220;28;20021;-81
2022/05/14 04:54:18;;;;;;;6.97;5.43;;;15.40;99.90;;;;;;5041495;28;20029;-81
2022/05/14 04:56:44;;;;;;;8.07;5.90;;;15.40;99.90;;;;;;5022581;28;20597;-82
2022/05/14 04:59:11;;;;;;;7.20;4.80;;;15.50;99.90;;;;;;5025523;28;20030;-83
2022/05/14 05:01:36;;;;;;;6.82;5.95;;;15.60;99.90;;;;;;5040988;28;20085;-83
2022/05/14 05:04:02;;;;;;;8.10;6.25;;;15.70;99.90;;;;;;5044493;28;20039;-81
2022/05/14 05:06:28;;;;;;;6.38;5.53;;;15.90;99.90;;;;;;5043453;28;20032;-82
2022/05/14 05:08:55;;;;;;;5.18;4.68;;;16.10;99.90;;;;;;5043788;28;20018;-83
2022/05/14 05:11:22;;;;;;;5.10;4.60;;;16.20;99.90;;;;;;5044547;28;20114;-82
2022/05/14 05:13:48;;;;;;;5.80;4.65;;;16.30;99.90;;;;;;5044559;28;20022;-86
2022/05/14 05:16:14;;;;;;;6.10;5.10;;;16.20;99.90;;;;;;5044423;28;20124;-82
2022/05/14 05:18:40;;;;;;;5.82;5.30;;;16.20;99.90;;;;;;5042857;28;20038;-84
2022/05/14 05:21:07;;;;;;;7.03;5.30;;;16.10;99.90;;;;;;5045437;28;20470;-81
2022/05/14 05:23:34;;;;;;;6.00;5.00;;;16.20;99.90;;;;;;5059218;28;20022;-81
2022/05/14 05:26:00;;;;;;;4.78;4.38;;;16.30;99.90;;;;;;5042831;28;20057;-83
2022/05/14 05:28:27;;;;;;;5.80;5.07;;;16.50;99.60;;;;;;5058264;28;20018;-81
2022/05/14 05:30:53;;;;;;;6.25;5.65;;;16.50;99.20;;;;;;5058014;28;20028;-81
2022/05/14 05:33:22;;;;;;;6.63;5.93;;;16.60;99.10;;;;;;5031488;28;20037;-84
2022/05/14 05:35:49;;;;;;;5.78;5.13;;;16.80;98.70;;;;;;5043881;28;20034;-83
2022/05/14 05:38:15;;;;;;;5.57;4.97;;;17.10;98.50;;;;;;5026301;28;20040;-84
2022/05/14 05:40:42;;;;;;;6.60;5.57;;;17.40;97.60;;;;;;5044746;28;20029;-85
2022/05/14 05:43:09;;;;;;;6.95;4.75;;;17.80;97.10;;;;;;5025980;28;20060;-83
2022/05/14 05:45:37;;;;;;;5.75;5.05;;;18.10;95.90;;;;;;5044762;28;20033;-85
2022/05/14 05:48:03;;;;;;;8.02;4.88;;;18.10;95.50;;;;;;5038241;28;20022;-85
2022/05/14 05:50:29;;;;;;;7.53;5.55;;;18.00;95.50;;;;;;5004740;28;20026;-84
2022/05/14 05:52:54;;;;;;;6.00;5.15;;;17.90;95.70;;;;;;5022986;28;20125;-84
2022/05/14 05:58:06;;;;;;;6.28;4.85;;;17.30;96.60;;;;;;5024972;28;20044;-84
2022/05/14 06:00:32;;;;;;;5.85;4.90;;;17.00;97.20;;;;;;5043815;28;20176;-83
2022/05/14 06:02:59;;;;;;;8.00;4.53;;;16.80;97.70;;;;;;5031864;28;20018;-83
2022/05/14 06:05:26;;;;;;;5.72;5.13;;;16.70;98.00;;;;;;5023456;28;20034;-84
2022/05/14 06:07:52;;;;;;;6.13;5.15;;;16.70;98.30;;;;;;5042308;28;20018;-83
2022/05/14 06:10:22;;;;;;;5.80;5.20;;;16.70;98.40;;;;;;5048352;28;20050;-83
2022/05/14 06:12:48;;;;;;;6.05;5.32;;;16.60;98.50;;;;;;5033194;28;20040;-83
2022/05/14 06:15:17;;;;;;;6.88;5.22;;;16.70;98.60;;;;;;5030475;28;20029;-83
2022/05/14 06:17:43;;;;;;;6.97;5.45;;;16.70;98.50;;;;;;5048559;28;20026;-82
2022/05/14 06:20:12;;;;;;;5.47;4.97;;;16.80;98.50;;;;;;5018881;28;20124;-84
2022/05/14 06:22:38;;;;;;;6.38;5.75;;;16.80;98.30;;;;;;5016680;28;20022;-83
2022/05/14 06:25:05;;;;;;;7.95;6.65;;;16.80;98.20;;;;;;5037005;28;20041;-84
2022/05/14 06:27:31;;;;;;;8.88;6.50;;;16.90;98.00;;;;;;5036926;28;20029;-82
2022/05/14 06:29:57;;;;;;;7.43;6.72;;;16.90;98.20;;;;;;5035063;28;20026;-84
2022/05/14 06:32:23;;;;;;;8.70;6.40;;;16.90;98.20;;;;;;5008934;28;20018;-84
2022/05/14 06:34:48;;;;;;;5.57;4.68;;;17.00;98.00;;;;;;5024811;28;20483;-83
2022/05/14 06:37:14;;;;;;;5.63;4.55;;;17.10;97.70;;;;;;5005928;28;20026;-83
2022/05/14 06:39:42;;;;;;;5.45;4.95;;;17.30;97.30;;;;;;5007471;28;20026;-83
2022/05/14 06:42:08;;;;;;;4.80;4.28;;;17.40;96.90;;;;;;5010929;28;20090;-82
2022/05/14 06:44:34;;;;;;;3.92;3.55;;;17.60;96.40;;;;;;5014980;28;20014;-82
2022/05/14 06:46:59;;;;;;;3.72;3.42;;;18.20;96.70;;;;;;5039793;28;20081;-84
2022/05/14 06:49:25;;;;;;;3.65;3.15;;;20.20;92.80;;;;;;5035242;28;20041;-84
2022/05/14 06:51:53;;;;;;;3.88;2.92;;;21.40;83.90;;;;;;5051994;28;20052;-84
2022/05/14 06:54:20;;;;;;;5.07;3.10;;;21.60;76.80;;;;;;5051150;28;20036;-83
2022/05/14 06:56:47;;;;;;;3.50;2.25;;;21.50;73.90;;;;;;5051867;28;20025;-82
2022/05/14 06:59:14;;;;;;;5.03;2.92;;;22.40;70.20;;;;;;5050935;28;20018;-82
2022/05/14 07:01:42;;;;;;;2.15;1.92;;;22.60;65.30;;;;;;5042717;28;20025;-84
2022/05/14 07:06:56;;;;;;;2.55;1.85;;;20.90;66.60;;;;;;5041707;28;20083;-85
2022/05/14 07:09:27;;;;;;;2.10;1.90;;;20.70;67.80;;;;;;5042076;28;20108;-83
2022/05/14 07:11:56;;;;;;;2.88;1.73;;;20.50;68.30;;;;;;5044800;28;20028;-83
2022/05/14 07:14:24;;;;;;;2.38;1.80;;;20.60;67.90;;;;;;5043840;28;20044;-82
2022/05/14 07:16:50;;;;;;;4.15;1.60;;;20.80;67.60;;;;;;5044208;28;20029;-84
2022/05/14 07:19:17;;;;;;;1.70;1.60;;;21.00;66.70;;;;;;5049238;28;20080;-81
2022/05/14 07:21:44;;;;;;;1.77;1.38;;;21.00;66.30;;;;;;5037499;28;20009;-81
2022/05/14 07:24:15;;;;;;;3.35;2.40;;;20.90;66.80;;;;;;5057636;28;20098;-82
2022/05/14 07:26:41;;;;;;;2.78;2.30;;;20.50;68.10;;;;;;5055262;28;20037;-82
2022/05/14 07:29:10;;;;;;;2.25;2.03;;;20.30;69.20;;;;;;5049992;28;20056;-83
2022/05/14 07:31:37;;;;;;;3.38;2.65;;;20.30;69.20;;;;;;5044350;28;20061;-82
2022/05/14 07:34:03;;;;;;;3.00;2.28;;;20.20;68.50;;;;;;5042043;28;20057;-80
2022/05/14 07:36:33;;;;;;;4.25;2.03;;;20.00;67.90;;;;;;5041418;28;20060;-80
2022/05/14 07:39:04;;;;;;;3.83;2.20;;;20.00;68.00;;;;;;5021503;28;20448;-80
2022/05/14 07:41:32;;;;;;;2.33;1.92;;;20.00;68.30;;;;;;5040443;28;20398;-80
2022/05/14 07:43:59;;;;;;;2.97;2.22;;;20.10;67.60;;;;;;5039899;28;20045;-79
2022/05/14 07:46:29;;;;;;;2.75;1.88;;;20.20;67.00;;;;;;5040895;28;20402;-80
2022/05/14 07:48:56;;;;;;;2.03;1.85;;;20.40;66.20;;;;;;5041971;28;20530;-81
2022/05/14 07:51:22;;;;;;;2.50;1.80;;;20.60;64.80;;;;;;5040928;28;20033;-80
2022/05/14 07:53:48;;;;;;;2.85;1.88;;;20.70;63.90;;;;;;5040175;28;20113;-79
2022/05/14 07:56:14;;;;;;;4.43;2.08;;;20.70;63.10;;;;;;5039225;28;20075;-80
2022/05/14 07:58:43;;;;;;;4.13;1.95;;;20.80;61.70;;;;;;5020649;28;20030;-80
2022/05/14 08:01:09;;;;;;;1.98;1.80;;;20.90;60.90;;;;;;5020733;28;20486;-81
2022/05/14 08:03:35;;;;;;;1.75;1.30;;;20.90;60.80;;;;;;5020939;28;20034;-81
2022/05/14 08:06:01;;;;;;;3.42;1.77;;;20.90;60.10;;;;;;5020633;28;20041;-82
2022/05/14 08:08:27;;;;;;;4.60;1.85;;;21.00;59.20;;;;;;5020984;28;20040;-79
2022/05/14 08:10:54;;;;;;;2.58;1.92;;;20.90;58.30;;;;;;5020844;28;20096;-80
2022/05/14 08:13:23;;;;;;;6.55;2.35;;;20.90;59.20;;;;;;5036236;28;20025;-80
2022/05/14 08:15:50;;;;;;;4.82;2.60;;;20.90;59.40;;;;;;5033579;28;20104;-80
2022/05/14 08:18:17;;;;;;;5.57;2.10;;;20.80;59.60;;;;;;5026498;28;20068;-80
2022/05/14 08:20:43;;;;;;;3.20;2.20;;;20.80;59.50;;;;;;5039318;28;20030;-79
2022/05/14 08:25:56;;;;;;;4.20;2.10;;;20.90;58.40;;;;;;5035380;28;20167;-80
2022/05/14 08:28:22;;;;;;;4.63;1.88;;;21.10;58.10;;;;;;5037471;28;20029;-77
2022/05/14 08:30:48;;;;;;;3.00;1.75;;;21.30;57.60;;;;;;5037307;28;20390;-79
2022/05/14 08:33:14;;;;;;;2.35;1.80;;;21.50;56.70;;;;;;5037479;28;20021;-79
2022/05/14 08:35:40;;;;;;;2.90;1.75;;;21.50;56.50;;;;;;5022148;28;20064;-79
2022/05/14 08:38:08;;;;;;;9.02;2.78;;;21.30;56.90;;;;;;5021542;28;20040;-77
2022/05/14 08:40:41;;;;;;;4.55;1.73;;;21.20;57.20;;;;;;5037589;28;20120;-78
2022/05/14 08:43:16;;;;;;;4.53;2.22;;;21.30;57.50;;;;;;5038131;28;20167;-79
2022/05/14 08:45:42;;;;;;;1.65;1.50;;;21.40;57.50;;;;;;5045908;28;20005;-80
2022/05/14 08:48:30;;;;;;;3.20;1.70;;;21.40;57.60;;;;;;5053361;28;20017;-85
2022/05/14 08:51:20;;;;;;;3.15;1.95;;;21.60;57.80;;;;;;5022867;28;20037;-85
2022/05/14 08:53:51;;;;;;;2.20;1.30;;;21.60;57.20;;;;;;5040244;28;20033;-85
2022/05/14 08:56:22;;;;;;;5.75;1.70;;;21.60;57.30;;;;;;5024575;28;20032;-84
2022/05/14 08:59:15;;;;;;;6.30;1.83;;;21.60;55.10;;;;;;5022818;28;20025;-84
2022/05/14 09:01:43;;;;;;;1.92;1.50;;;21.80;54.50;;;;;;5042175;28;20386;-83
2022/05/14 09:04:12;;;;;;;3.85;2.42;;;21.90;54.30;;;;;;5042770;28;20017;-83
2022/05/14 09:06:39;;;;;;;3.97;1.90;;;21.70;54.50;;;;;;5041881;28;20029;-82
2022/05/14 09:09:06;;;;;;;2.05;1.60;;;21.50;55.60;;;;;;5043310;28;20034;-84
2022/05/14 09:11:45;;;;;;;3.22;1.70;;;21.60;55.60;;;;;;5024984;28;20026;-85
2022/05/14 09:14:21;;;;;;;3.90;2.05;;;21.70;55.10;;;;;;5025377;28;20486;-84
2022/05/14 09:16:50;;;;;;;5.45;1.80;;;21.50;55.20;;;;;;5035907;28;20028;-84
2022/05/14 09:19:19;;;;;;;2.78;1.63;;;21.50;55.90;;;;;;5027363;28;20523;-83
2022/05/14 09:21:55;;;;;;;2.22;1.70;;;21.60;55.30;;;;;;5039421;28;20021;-84
2022/05/14 09:24:27;;;;;;;3.10;1.70;;;21.80;55.40;;;;;;5056436;28;20029;-84
2022/05/14 09:27:07;;;;;;;3.25;1.77;;;22.20;54.70;;;;;;5055657;28;20041;-84
2022/05/14 09:29:38;;;;;;;4.65;1.70;;;22.40;53.70;;;;;;5037256;28;20024;-85
2022/05/14 09:32:06;;;;;;;2.30;1.58;;;22.10;53.40;;;;;;5026673;28;20482;-84
2022/05/14 09:34:34;;;;;;;5.88;1.90;;;21.80;53.70;;;;;;5042572;28;20041;-85
2022/05/14 09:37:09;;;;;;;2.80;1.50;;;21.50;54.30;;;;;;5033055;28;20034;-85
2022/05/14 09:39:36;;;;;;;1.27;0.98;;;21.70;54.90;;;;;;5015015;28;20026;-84
2022/05/14 09:42:04;;;;;;;1.83;1.65;;;22.20;54.60;;;;;;5028635;28;20061;-84
2022/05/14 09:44:35;;;;;;;2.92;1.77;;;22.30;53.70;;;;;;5023352;28;20037;-84
2022/05/14 09:47:13;;;;;;;3.53;1.67;;;22.60;53.60;;;;;;5038402;28;20045;-83
2022/05/14 09:49:41;;;;;;;3.17;1.70;;;22.90;53.40;;;;;;5040151;28;20041;-83
2022/05/14 09:52:13;;;;;;;2.55;1.50;;;23.30;52.10;;;;;;5044942;28;20360;-84
2022/05/14 09:54:50;;;;;;;;;;;23.70;51.40;;;;;;5025224;28;20029;-84
2022/05/14 09:57:34;;;;;;;4.68;1.77;;;24.00;50.40;;;;;;5042400;28;19909;-85
2022/05/14 10:00:03;;;;;;;1.77;1.30;;;24.30;49.50;;;;;;5043151;28;20517;-85
2022/05/14 10:02:53;;;;;;;5.72;2.22;;;24.40;49.40;;;;;;5043575;28;20089;-86
2022/05/14 10:05:43;;;;;;;1.90;1.42;;;24.30;48.80;;;;;;5043957;28;20037;-85
2022/05/14 10:08:15;;;;;;;2.00;1.67;;;24.20;49.60;;;;;;5045725;28;20435;-85
2022/05/14 10:10:47;;;;;;;4.07;1.70;;;24.30;48.50;;;;;;5044402;28;20051;-85
2022/05/14 10:13:20;;;;;;;;;;;24.00;48.80;;;;;;5046398;28;20032;-85
2022/05/14 10:15:59;;;;;;;4.22;2.05;;;23.90;49.50;;;;;;5038634;28;19917;-85
2022/05/14 10:18:37;;;;;;;3.35;1.92;;;24.20;50.30;;;;;;5051723;28;20096;-85
2022/05/14 10:21:34;;;;;;;2.60;1.92;;;24.70;48.60;;;;;;5026186;28;20099;-85
2022/05/14 10:27:14;;;;;;;4.45;2.15;;;24.80;46.80;;;;;;5043257;28;20099;-85
2022/05/14 10:29:46;;;;;;;5.40;1.88;;;24.60;46.50;;;;;;5025803;28;20234;-85
2022/05/14 10:32:15;;;;;;;2.85;1.60;;;24.30;47.60;;;;;;5045171;28;20087;-85
2022/05/14 10:35:03;;;;;;;4.55;1.95;;;24.70;48.00;;;;;;5026606;28;20032;-86
2022/05/14 10:37:34;;;;;;;2.10;1.90;;;25.00;47.50;;;;;;5013032;28;20479;-85
2022/05/14 10:40:02;;;;;;;5.22;1.95;;;25.00;47.30;;;;;;5027496;28;20029;-84
2022/05/14 10:42:50;;;;;;;2.78;1.52;;;25.20;46.90;;;;;;5044353;28;20025;-86
2022/05/14 10:45:16;;;;;;;3.15;1.75;;;25.40;46.30;;;;;;5026522;28;20037;-84
2022/05/14 10:47:47;;;;;;;3.80;1.63;;;25.50;45.90;;;;;;5054757;28;20025;-84
2022/05/14 10:50:20;;;;;;;2.63;1.83;;;25.50;46.20;;;;;;5051051;28;20079;-85
2022/05/14 10:52:50;;;;;;;2.35;1.35;;;25.50;47.10;;;;;;5031315;28;20038;-85
2022/05/14 10:55:21;;;;;;;3.22;1.80;;;25.90;46.90;;;;;;5043308;28;20028;-85
2022/05/14 10:57:53;;;;;;;1.42;1.30;;;26.20;47.10;;;;;;5043313;28;20167;-85
2022/05/14 11:00:31;;;;;;;2.20;1.52;;;26.50;46.40;;;;;;5043854;28;20026;-83
2022/05/14 11:03:20;;;;;;;2.53;1.58;;;26.80;45.60;;;;;;5043614;28;20022;-84
2022/05/14 11:06:15;;;;;;;4.22;1.98;;;26.30;44.00;;;;;;5023698;28;20038;-84
2022/05/14 11:08:46;;;;;;;5.00;2.17;;;25.70;45.40;;;;;;5029412;28;20041;-84
2022/05/14 11:11:17;;;;;;;2.92;1.65;;;25.80;45.20;;;;;;5028985;28;20022;-84
2022/05/14 11:14:06;;;;;;;3.33;1.80;;;25.80;44.60;;;;;;5019619;28;20037;-84
2022/05/14 11:16:47;;;;;;;5.75;1.95;;;25.50;44.80;;;;;;5047889;28;20043;-84
2022/05/14 11:19:29;;;;;;;2.65;1.63;;;25.30;45.20;;;;;;5047563;28;20017;-83
2022/05/14 11:21:55;;;;;;;5.93;2.00;;;25.20;44.70;;;;;;5047516;28;20163;-84
2022/05/14 11:24:31;;;;;;;4.50;2.42;;;25.10;45.20;;;;;;5048747;28;20030;-84
2022/05/14 11:26:57;;;;;;;5.03;2.00;;;25.20;45.10;;;;;;5048573;28;20026;-85
2022/05/14 11:29:26;;;;;;;4.72;1.83;;;25.30;45.70;;;;;;5046812;28;20052;-84
2022/05/14 11:32:05;;;;;;;7.03;1.92;;;25.30;45.00;;;;;;5045839;28;20037;-85
2022/05/14 11:34:31;;;;;;;3.33;1.77;;;25.30;44.60;;;;;;5046823;28;20048;-83
2022/05/14 11:37:00;;;;;;;3.67;1.98;;;25.30;43.90;;;;;;5052513;28;20029;-85
2022/05/14 11:39:37;;;;;;;6.45;2.00;;;25.20;44.80;;;;;;5046729;28;20052;-84
2022/05/14 11:42:28;;;;;;;4.20;1.85;;;25.30;44.90;;;;;;5043562;28;20493;-84
2022/05/14 11:45:12;;;;;;;2.97;1.63;;;25.30;44.70;;;;;;5047980;28;20037;-85
2022/05/14 11:47:53;;;;;;;5.95;1.85;;;24.60;45.70;;;;;;5047305;28;20045;-84
2022/05/14 11:50:25;;;;;;;3.25;1.75;;;24.60;45.90;;;;;;5045969;28;20021;-84
2022/05/14 11:52:51;;;;;;;3.03;1.55;;;24.80;46.60;;;;;;5047861;28;20067;-83
2022/05/14 11:55:28;;;;;;;3.28;1.45;;;25.10;45.20;;;;;;5048254;28;20029;-84
2022/05/14 11:58:07;;;;;;;3.53;1.80;;;25.20;45.10;;;;;;5047418;28;20040;-84
2022/05/14 12:00:34;;;;;;;3.10;1.85;;;25.40;44.10;;;;;;5047492;28;20045;-85
2022/05/14 12:03:06;;;;;;;6.68;2.50;;;25.40;44.00;;;;;;5048096;28;20056;-85
2022/05/14 12:05:37;;;;;;;4.70;2.20;;;25.40;44.20;;;;;;5027601;28;20030;-86
2022/05/14 12:08:33;;;;;;;5.28;2.08;;;25.50;43.30;;;;;;5026175;28;20017;-84
2022/05/14 12:11:30;;;;;;;4.03;2.08;;;25.50;43.60;;;;;;5030645;28;20017;-84
2022/05/14 12:14:05;;;;;;;4.55;2.67;;;25.60;44.00;;;;;;5011979;28;20022;-86
2022/05/14 12:16:41;;;;;;;7.00;2.45;;;25.60;43.60;;;;;;5041716;28;20029;-85
2022/05/14 12:19:15;;;;;;;4.82;1.65;;;25.20;44.40;;;;;;5045605;28;20018;-86
2022/05/14 12:21:42;;;;;;;6.40;2.00;;;24.80;44.80;;;;;;5043857;28;20028;-86
2022/05/14 12:24:28;;;;;;;1.73;1.40;;;24.90;44.90;;;;;;5032695;28;20030;-86
2022/05/14 12:26:55;;;;;;;1.77;1.45;;;25.40;44.80;;;;;;5048479;28;20025;-86
2022/05/14 12:29:25;;;;;;;3.17;1.60;;;25.70;45.00;;;;;;5032173;28;20056;-86
2022/05/14 12:34:54;;;;;;;5.55;1.90;;;26.10;43.00;;;;;;5049520;28;20040;-86
2022/05/14 12:37:35;;;;;;;4.07;1.80;;;26.10;43.20;;;;;;5049727;28;20090;-85
2022/05/14 12:40:01;;;;;;;3.60;2.00;;;26.10;43.50;;;;;;5039759;28;20093;-86
2022/05/14 12:42:34;;;;;;;3.20;1.50;;;26.10;43.30;;;;;;5029207;28;20030;-86
2022/05/14 12:45:00;;;;;;;4.45;2.40;;;25.90;43.70;;;;;;5048091;28;20025;-85
2022/05/14 12:47:30;;;;;;;4.47;1.77;;;25.90;43.00;;;;;;5052341;28;20065;-86
2022/05/14 12:49:56;;;;;;;4.57;2.00;;;25.80;43.70;;;;;;5040016;28;20032;-85
2022/05/14 12:52:32;;;;;;;3.38;1.90;;;25.60;44.00;;;;;;5050601;28;20038;-86
2022/05/14 12:55:09;;;;;;;3.15;1.70;;;25.70;44.20;;;;;;5051222;28;20079;-85
2022/05/14 12:57:37;;;;;;;2.28;1.75;;;25.90;44.40;;;;;;5052279;28;20033;-85
2022/05/14 13:00:05;;;;;;;3.65;1.75;;;26.00;44.00;;;;;;5031148;28;20036;-84
2022/05/14 13:02:35;;;;;;;3.67;1.42;;;26.30;43.70;;;;;;5031254;28;20052;-82
2022/05/14 13:05:11;;;;;;;6.47;2.20;;;26.40;43.30;;;;;;5044753;28;20037;-84
2022/05/14 13:08:02;;;;;;;4.35;1.73;;;26.50;42.60;;;;;;5033462;28;20018;-82
2022/05/14 13:10:29;;;;;;;5.70;2.20;;;26.20;42.40;;;;;;5052132;28;20018;-83
2022/05/14 13:13:00;;;;;;;4.10;1.60;;;26.00;43.50;;;;;;5046086;28;20149;-82
2022/05/14 13:15:53;;;;;;;3.30;1.60;;;26.20;43.80;;;;;;5019829;28;20010;-83